sensor_id;sensor_type;location;lat;lon;timestamp;temperature;humidity
2407;DHT22;37709;53.480;9.688;2023-05-10T00:01:54;13.30;56.30
2407;DHT22;37709;53.480;9.688;2023-05-10T00:04:22;13.20;56.80
2407;DHT22;37709;53.480;9.688;2023-05-10T00:06:49;13.10;56.80
2407;DHT22;37709;53.480;9.688;2023-05-10T00:09:16;12.90;57.10
2407;DHT22;37709;53.480;9.688;2023-05-10T00:11:43;12.90;57.50
2407;DHT22;37709;53.480;9.688;2023-05-10T00:14:11;12.70;57.80
2407;DHT22;37709;53.480;9.688;2023-05-10T00:16:38;12.60;58.20
2407;DHT22;37709;53.480;9.688;2023-05-10T00:19:06;12.50;58.60
2407;DHT22;37709;53.480;9.688;2023-05-10T00:21:33;12.40;58.90
2407;DHT22;37709;53.480;9.688;2023-05-10T00:24:01;12.40;58.80
2407;DHT22;37709;53.480;9.688;2023-05-10T00:26:28;12.40;59.20
2407;DHT22;37709;53.480;9.688;2023-05-10T00:28:56;12.20;59.60
2407;DHT22;37709;53.480;9.688;2023-05-10T00:31:26;12.10;59.80
2407;DHT22;37709;53.480;9.688;2023-05-10T00:33:53;12.10;60.20
2407;DHT22;37709;53.480;9.688;2023-05-10T00:36:20;12.00;60.30
2407;DHT22;37709;53.480;9.688;2023-05-10T00:38:48;11.90;60.80
2407;DHT22;37709;53.480;9.688;2023-05-10T00:41:15;11.90;60.90
2407;DHT22;37709;53.480;9.688;2023-05-10T00:43:44;11.90;61.20
2407;DHT22;37709;53.480;9.688;2023-05-10T00:46:12;11.90;61.50
2407;DHT22;37709;53.480;9.688;2023-05-10T00:48:41;11.80;61.70
2407;DHT22;37709;53.480;9.688;2023-05-10T00:51:09;11.70;62.20
2407;DHT22;37709;53.480;9.688;2023-05-10T00:53:36;11.60;62.70
2407;DHT22;37709;53.480;9.688;2023-05-10T00:56:04;11.50;63.20
2407;DHT22;37709;53.480;9.688;2023-05-10T00:58:32;11.50;63.30
2407;DHT22;37709;53.480;9.688;2023-05-10T01:01:00;11.40;63.60
2407;DHT22;37709;53.480;9.688;2023-05-10T01:03:29;11.30;63.90
2407;DHT22;37709;53.480;9.688;2023-05-10T01:05:56;11.20;64.80
2407;DHT22;37709;53.480;9.688;2023-05-10T01:08:25;11.10;65.10
2407;DHT22;37709;53.480;9.688;2023-05-10T01:10:52;11.00;66.10
2407;DHT22;37709;53.480;9.688;2023-05-10T01:13:34;11.10;66.10
2407;DHT22;37709;53.480;9.688;2023-05-10T01:16:04;11.00;65.90
2407;DHT22;37709;53.480;9.688;2023-05-10T01:18:36;11.00;66.50
2407;DHT22;37709;53.480;9.688;2023-05-10T01:24:09;10.80;67.30
2407;DHT22;37709;53.480;9.688;2023-05-10T01:29:19;10.80;67.50
2407;DHT22;37709;53.480;9.688;2023-05-10T01:35:10;10.80;67.70
2407;DHT22;37709;53.480;9.688;2023-05-10T01:37:52;10.60;68.80
2407;DHT22;37709;53.480;9.688;2023-05-10T01:40:32;10.50;69.60
2407;DHT22;37709;53.480;9.688;2023-05-10T01:43:07;10.40;69.40
2407;DHT22;37709;53.480;9.688;2023-05-10T01:45:44;10.10;69.80
2407;DHT22;37709;53.480;9.688;2023-05-10T01:48:14;10.00;71.30
2407;DHT22;37709;53.480;9.688;2023-05-10T01:50:43;9.90;73.60
2407;DHT22;37709;53.480;9.688;2023-05-10T01:53:13;9.80;74.30
2407;DHT22;37709;53.480;9.688;2023-05-10T01:55:47;9.70;74.60
2407;DHT22;37709;53.480;9.688;2023-05-10T01:58:29;9.60;75.60
2407;DHT22;37709;53.480;9.688;2023-05-10T02:00:59;9.50;76.80
2407;DHT22;37709;53.480;9.688;2023-05-10T02:03:28;9.50;77.70
2407;DHT22;37709;53.480;9.688;2023-05-10T02:05:57;9.40;78.70
2407;DHT22;37709;53.480;9.688;2023-05-10T02:08:25;9.30;79.90
2407;DHT22;37709;53.480;9.688;2023-05-10T02:10:54;9.20;80.80
2407;DHT22;37709;53.480;9.688;2023-05-10T02:13:24;9.20;82.30
2407;DHT22;37709;53.480;9.688;2023-05-10T02:15:53;9.10;82.80
2407;DHT22;37709;53.480;9.688;2023-05-10T02:18:23;9.10;83.60
2407;DHT22;37709;53.480;9.688;2023-05-10T02:20:52;9.00;85.60
2407;DHT22;37709;53.480;9.688;2023-05-10T02:23:20;9.00;86.50
2407;DHT22;37709;53.480;9.688;2023-05-10T02:25:49;9.10;87.90
2407;DHT22;37709;53.480;9.688;2023-05-10T02:28:21;9.30;88.20
2407;DHT22;37709;53.480;9.688;2023-05-10T02:30:51;9.40;88.20
2407;DHT22;37709;53.480;9.688;2023-05-10T02:33:20;9.70;87.40
2407;DHT22;37709;53.480;9.688;2023-05-10T02:35:50;9.80;86.70
2407;DHT22;37709;53.480;9.688;2023-05-10T02:38:20;9.80;86.60
2407;DHT22;37709;53.480;9.688;2023-05-10T02:40:50;9.80;87.10
2407;DHT22;37709;53.480;9.688;2023-05-10T02:43:18;9.90;86.70
2407;DHT22;37709;53.480;9.688;2023-05-10T02:45:47;9.90;86.70
2407;DHT22;37709;53.480;9.688;2023-05-10T02:48:16;9.90;87.20
2407;DHT22;37709;53.480;9.688;2023-05-10T02:50:44;9.80;87.50
2407;DHT22;37709;53.480;9.688;2023-05-10T02:53:15;9.80;88.60
2407;DHT22;37709;53.480;9.688;2023-05-10T02:55:49;9.90;88.30
2407;DHT22;37709;53.480;9.688;2023-05-10T02:58:17;9.90;88.40
2407;DHT22;37709;53.480;9.688;2023-05-10T03:00:46;10.00;87.50
2407;DHT22;37709;53.480;9.688;2023-05-10T03:03:14;10.10;87.10
2407;DHT22;37709;53.480;9.688;2023-05-10T03:05:42;10.20;86.50
2407;DHT22;37709;53.480;9.688;2023-05-10T03:08:09;10.20;86.90
2407;DHT22;37709;53.480;9.688;2023-05-10T03:10:44;10.20;86.90
2407;DHT22;37709;53.480;9.688;2023-05-10T03:13:29;10.20;87.10
2407;DHT22;37709;53.480;9.688;2023-05-10T03:16:07;10.20;87.60
2407;DHT22;37709;53.480;9.688;2023-05-10T03:18:42;10.30;87.30
2407;DHT22;37709;53.480;9.688;2023-05-10T03:21:11;10.30;87.20
2407;DHT22;37709;53.480;9.688;2023-05-10T03:23:52;10.40;87.30
2407;DHT22;37709;53.480;9.688;2023-05-10T03:26:26;10.40;87.30
2407;DHT22;37709;53.480;9.688;2023-05-10T03:29:04;10.40;87.30
2407;DHT22;37709;53.480;9.688;2023-05-10T03:31:33;10.50;86.90
2407;DHT22;37709;53.480;9.688;2023-05-10T03:34:00;10.50;87.00
2407;DHT22;37709;53.480;9.688;2023-05-10T03:36:28;10.50;87.50
2407;DHT22;37709;53.480;9.688;2023-05-10T03:38:55;10.50;87.50
2407;DHT22;37709;53.480;9.688;2023-05-10T03:41:24;10.50;87.50
2407;DHT22;37709;53.480;9.688;2023-05-10T03:43:53;10.40;87.90
2407;DHT22;37709;53.480;9.688;2023-05-10T03:46:20;10.40;88.60
2407;DHT22;37709;53.480;9.688;2023-05-10T03:48:47;10.30;89.00
2407;DHT22;37709;53.480;9.688;2023-05-10T03:51:14;10.30;89.40
2407;DHT22;37709;53.480;9.688;2023-05-10T03:53:42;10.30;89.40
2407;DHT22;37709;53.480;9.688;2023-05-10T03:56:09;10.30;89.60
2407;DHT22;37709;53.480;9.688;2023-05-10T03:58:36;10.20;90.00
2407;DHT22;37709;53.480;9.688;2023-05-10T04:01:03;10.20;90.40
2407;DHT22;37709;53.480;9.688;2023-05-10T04:03:31;10.30;90.50
2407;DHT22;37709;53.480;9.688;2023-05-10T04:06:00;10.40;90.30
2407;DHT22;37709;53.480;9.688;2023-05-10T04:08:28;10.60;90.20
2407;DHT22;37709;53.480;9.688;2023-05-10T04:11:06;10.70;89.40
2407;DHT22;37709;53.480;9.688;2023-05-10T04:13:34;10.90;88.70
2407;DHT22;37709;53.480;9.688;2023-05-10T04:16:02;11.00;88.00
2407;DHT22;37709;53.480;9.688;2023-05-10T04:18:30;11.00;87.90
2407;DHT22;37709;53.480;9.688;2023-05-10T04:20:57;11.10;87.40
2407;DHT22;37709;53.480;9.688;2023-05-10T04:23:24;11.20;87.40
2407;DHT22;37709;53.480;9.688;2023-05-10T04:25:51;11.20;87.40
2407;DHT22;37709;53.480;9.688;2023-05-10T04:28:19;11.30;87.00
2407;DHT22;37709;53.480;9.688;2023-05-10T04:30:46;11.40;86.90
2407;DHT22;37709;53.480;9.688;2023-05-10T04:33:13;11.40;86.30
2407;DHT22;37709;53.480;9.688;2023-05-10T04:35:41;11.50;86.20
2407;DHT22;37709;53.480;9.688;2023-05-10T04:38:09;11.50;85.80
2407;DHT22;37709;53.480;9.688;2023-05-10T04:40:36;11.60;86.00
2407;DHT22;37709;53.480;9.688;2023-05-10T04:43:03;11.60;85.80
2407;DHT22;37709;53.480;9.688;2023-05-10T04:45:31;11.70;85.50
2407;DHT22;37709;53.480;9.688;2023-05-10T04:47:58;11.70;85.40
2407;DHT22;37709;53.480;9.688;2023-05-10T04:50:26;11.70;85.60
2407;DHT22;37709;53.480;9.688;2023-05-10T04:52:53;11.80;85.00
2407;DHT22;37709;53.480;9.688;2023-05-10T04:55:20;11.80;84.90
2407;DHT22;37709;53.480;9.688;2023-05-10T04:57:48;11.80;84.40
2407;DHT22;37709;53.480;9.688;2023-05-10T05:00:15;11.90;84.50
2407;DHT22;37709;53.480;9.688;2023-05-10T05:02:45;12.00;84.10
2407;DHT22;37709;53.480;9.688;2023-05-10T05:05:13;12.20;84.40
2407;DHT22;37709;53.480;9.688;2023-05-10T05:07:40;12.30;83.60
2407;DHT22;37709;53.480;9.688;2023-05-10T05:10:08;12.30;82.90
2407;DHT22;37709;53.480;9.688;2023-05-10T05:12:35;12.30;82.80
2407;DHT22;37709;53.480;9.688;2023-05-10T05:15:03;12.30;83.00
2407;DHT22;37709;53.480;9.688;2023-05-10T05:17:30;12.30;83.00
2407;DHT22;37709;53.480;9.688;2023-05-10T05:19:58;12.40;82.80
2407;DHT22;37709;53.480;9.688;2023-05-10T05:22:25;12.50;82.30
2407;DHT22;37709;53.480;9.688;2023-05-10T05:24:56;12.70;81.60
2407;DHT22;37709;53.480;9.688;2023-05-10T05:27:25;12.70;81.70
2407;DHT22;37709;53.480;9.688;2023-05-10T05:29:55;12.80;81.20
2407;DHT22;37709;53.480;9.688;2023-05-10T05:32:23;12.90;81.00
2407;DHT22;37709;53.480;9.688;2023-05-10T05:34:51;13.00;80.60
2407;DHT22;37709;53.480;9.688;2023-05-10T05:37:20;13.10;80.30
2407;DHT22;37709;53.480;9.688;2023-05-10T05:39:48;13.30;79.90
2407;DHT22;37709;53.480;9.688;2023-05-10T05:42:15;13.40;79.40
2407;DHT22;37709;53.480;9.688;2023-05-10T05:44:44;13.50;79.00
2407;DHT22;37709;53.480;9.688;2023-05-10T05:47:12;13.60;78.40
2407;DHT22;37709;53.480;9.688;2023-05-10T05:49:40;13.80;77.90
2407;DHT22;37709;53.480;9.688;2023-05-10T05:52:07;14.00;78.00
2407;DHT22;37709;53.480;9.688;2023-05-10T05:54:35;14.20;77.40
2407;DHT22;37709;53.480;9.688;2023-05-10T05:57:02;14.30;76.30
2407;DHT22;37709;53.480;9.688;2023-05-10T05:59:29;14.50;75.30
2407;DHT22;37709;53.480;9.688;2023-05-10T06:01:56;14.60;75.00
2407;DHT22;37709;53.480;9.688;2023-05-10T06:04:24;14.80;74.40
2407;DHT22;37709;53.480;9.688;2023-05-10T06:06:52;14.90;73.90
2407;DHT22;37709;53.480;9.688;2023-05-10T06:09:20;15.10;74.00
2407;DHT22;37709;53.480;9.688;2023-05-10T06:11:47;15.30;73.70
2407;DHT22;37709;53.480;9.688;2023-05-10T06:14:14;15.50;72.30
2407;DHT22;37709;53.480;9.688;2023-05-10T06:16:41;15.70;72.10
2407;DHT22;37709;53.480;9.688;2023-05-10T06:19:09;15.90;70.90
2407;DHT22;37709;53.480;9.688;2023-05-10T06:21:36;16.00;70.70
2407;DHT22;37709;53.480;9.688;2023-05-10T06:24:05;16.10;70.10
2407;DHT22;37709;53.480;9.688;2023-05-10T06:26:33;16.00;69.90
2407;DHT22;37709;53.480;9.688;2023-05-10T06:29:01;16.20;70.00
2407;DHT22;37709;53.480;9.688;2023-05-10T06:31:28;16.40;69.50
2407;DHT22;37709;53.480;9.688;2023-05-10T06:33:56;16.50;68.40
2407;DHT22;37709;53.480;9.688;2023-05-10T06:36:24;16.70;68.10
2407;DHT22;37709;53.480;9.688;2023-05-10T06:38:53;16.90;68.30
2407;DHT22;37709;53.480;9.688;2023-05-10T06:41:21;17.00;67.20
2407;DHT22;37709;53.480;9.688;2023-05-10T06:43:50;17.10;66.90
2407;DHT22;37709;53.480;9.688;2023-05-10T06:46:18;17.20;66.70
2407;DHT22;37709;53.480;9.688;2023-05-10T06:48:46;17.50;66.60
2407;DHT22;37709;53.480;9.688;2023-05-10T06:51:13;17.60;65.80
2407;DHT22;37709;53.480;9.688;2023-05-10T06:53:40;17.30;65.10
2407;DHT22;37709;53.480;9.688;2023-05-10T06:56:07;17.20;65.20
2407;DHT22;37709;53.480;9.688;2023-05-10T06:58:35;17.20;65.60
2407;DHT22;37709;53.480;9.688;2023-05-10T07:01:03;17.30;66.00
2407;DHT22;37709;53.480;9.688;2023-05-10T07:03:31;17.30;66.10
2407;DHT22;37709;53.480;9.688;2023-05-10T07:06:02;17.40;65.70
2407;DHT22;37709;53.480;9.688;2023-05-10T07:08:31;17.60;65.50
2407;DHT22;37709;53.480;9.688;2023-05-10T07:11:01;17.80;65.30
2407;DHT22;37709;53.480;9.688;2023-05-10T07:13:28;17.70;64.60
2407;DHT22;37709;53.480;9.688;2023-05-10T07:15:56;17.70;64.80
2407;DHT22;37709;53.480;9.688;2023-05-10T07:18:24;17.60;65.40
2407;DHT22;37709;53.480;9.688;2023-05-10T07:20:52;17.60;65.80
2407;DHT22;37709;53.480;9.688;2023-05-10T07:23:19;17.50;65.70
2407;DHT22;37709;53.480;9.688;2023-05-10T07:25:48;17.50;65.40
2407;DHT22;37709;53.480;9.688;2023-05-10T07:28:15;17.40;66.40
2407;DHT22;37709;53.480;9.688;2023-05-10T07:30:43;17.40;67.40
2407;DHT22;37709;53.480;9.688;2023-05-10T07:33:13;17.20;69.50
2407;DHT22;37709;53.480;9.688;2023-05-10T07:35:40;16.80;72.00
2407;DHT22;37709;53.480;9.688;2023-05-10T07:38:08;16.40;74.80
2407;DHT22;37709;53.480;9.688;2023-05-10T07:40:35;15.90;78.70
2407;DHT22;37709;53.480;9.688;2023-05-10T07:43:02;15.40;80.70
2407;DHT22;37709;53.480;9.688;2023-05-10T07:45:30;14.90;85.60
2407;DHT22;37709;53.480;9.688;2023-05-10T07:47:57;14.70;92.00
2407;DHT22;37709;53.480;9.688;2023-05-10T07:50:25;14.60;95.20
2407;DHT22;37709;53.480;9.688;2023-05-10T07:52:52;14.50;97.30
2407;DHT22;37709;53.480;9.688;2023-05-10T07:55:20;14.50;99.90
2407;DHT22;37709;53.480;9.688;2023-05-10T07:57:50;14.30;99.90
2407;DHT22;37709;53.480;9.688;2023-05-10T08:00:19;14.20;99.90
2407;DHT22;37709;53.480;9.688;2023-05-10T08:02:47;14.20;99.90
2407;DHT22;37709;53.480;9.688;2023-05-10T08:05:14;14.30;99.90
2407;DHT22;37709;53.480;9.688;2023-05-10T08:07:42;14.30;99.90
2407;DHT22;37709;53.480;9.688;2023-05-10T08:10:10;14.50;99.90
2407;DHT22;37709;53.480;9.688;2023-05-10T08:12:38;14.30;99.90
2407;DHT22;37709;53.480;9.688;2023-05-10T08:15:06;14.10;99.90
2407;DHT22;37709;53.480;9.688;2023-05-10T08:17:34;14.20;99.90
2407;DHT22;37709;53.480;9.688;2023-05-10T08:20:01;14.20;99.90
2407;DHT22;37709;53.480;9.688;2023-05-10T08:22:28;14.40;99.90
2407;DHT22;37709;53.480;9.688;2023-05-10T08:24:56;14.60;99.90
2407;DHT22;37709;53.480;9.688;2023-05-10T08:27:23;14.80;99.90
2407;DHT22;37709;53.480;9.688;2023-05-10T08:29:51;15.00;99.90
2407;DHT22;37709;53.480;9.688;2023-05-10T08:32:18;15.00;99.90
2407;DHT22;37709;53.480;9.688;2023-05-10T08:34:46;15.20;99.90
2407;DHT22;37709;53.480;9.688;2023-05-10T08:37:14;15.10;99.90
2407;DHT22;37709;53.480;9.688;2023-05-10T08:39:42;14.80;99.90
2407;DHT22;37709;53.480;9.688;2023-05-10T08:42:09;14.60;99.90
2407;DHT22;37709;53.480;9.688;2023-05-10T08:44:37;14.30;99.90
2407;DHT22;37709;53.480;9.688;2023-05-10T08:47:05;14.40;99.90
2407;DHT22;37709;53.480;9.688;2023-05-10T08:49:37;14.40;99.90
2407;DHT22;37709;53.480;9.688;2023-05-10T08:52:05;14.30;99.90
2407;DHT22;37709;53.480;9.688;2023-05-10T08:54:34;14.20;99.90
2407;DHT22;37709;53.480;9.688;2023-05-10T08:57:02;14.10;99.90
2407;DHT22;37709;53.480;9.688;2023-05-10T08:59:30;13.80;99.90
2407;DHT22;37709;53.480;9.688;2023-05-10T09:01:58;13.60;99.90
2407;DHT22;37709;53.480;9.688;2023-05-10T09:04:26;13.20;99.90
2407;DHT22;37709;53.480;9.688;2023-05-10T09:06:54;13.10;99.90
2407;DHT22;37709;53.480;9.688;2023-05-10T09:09:21;13.00;99.90
2407;DHT22;37709;53.480;9.688;2023-05-10T09:11:49;13.00;99.90
2407;DHT22;37709;53.480;9.688;2023-05-10T09:14:16;12.80;99.90
2407;DHT22;37709;53.480;9.688;2023-05-10T09:16:44;12.60;99.90
2407;DHT22;37709;53.480;9.688;2023-05-10T09:19:12;12.40;99.90
2407;DHT22;37709;53.480;9.688;2023-05-10T09:21:40;12.30;99.90
2407;DHT22;37709;53.480;9.688;2023-05-10T09:24:08;12.30;99.90
2407;DHT22;37709;53.480;9.688;2023-05-10T09:26:35;12.30;99.90
2407;DHT22;37709;53.480;9.688;2023-05-10T09:29:12;12.30;99.90
2407;DHT22;37709;53.480;9.688;2023-05-10T09:31:50;12.30;99.90
2407;DHT22;37709;53.480;9.688;2023-05-10T09:34:19;12.30;99.90
2407;DHT22;37709;53.480;9.688;2023-05-10T09:36:55;12.30;99.90
2407;DHT22;37709;53.480;9.688;2023-05-10T09:39:37;12.30;99.90
2407;DHT22;37709;53.480;9.688;2023-05-10T09:42:09;12.20;99.90
2407;DHT22;37709;53.480;9.688;2023-05-10T09:44:36;12.20;99.90
2407;DHT22;37709;53.480;9.688;2023-05-10T09:47:05;12.30;99.90
2407;DHT22;37709;53.480;9.688;2023-05-10T09:49:33;12.30;99.90
2407;DHT22;37709;53.480;9.688;2023-05-10T09:52:06;12.30;99.90
2407;DHT22;37709;53.480;9.688;2023-05-10T09:54:34;12.40;99.90
2407;DHT22;37709;53.480;9.688;2023-05-10T09:57:02;12.30;99.90
2407;DHT22;37709;53.480;9.688;2023-05-10T09:59:33;12.40;99.90
2407;DHT22;37709;53.480;9.688;2023-05-10T10:02:02;12.30;99.90
2407;DHT22;37709;53.480;9.688;2023-05-10T10:04:30;12.20;99.90
2407;DHT22;37709;53.480;9.688;2023-05-10T10:07:00;12.30;99.90
2407;DHT22;37709;53.480;9.688;2023-05-10T10:09:28;12.50;99.90
2407;DHT22;37709;53.480;9.688;2023-05-10T10:11:57;12.60;99.90
2407;DHT22;37709;53.480;9.688;2023-05-10T10:14:24;12.70;99.90
2407;DHT22;37709;53.480;9.688;2023-05-10T10:16:52;12.80;99.90
2407;DHT22;37709;53.480;9.688;2023-05-10T10:19:34;13.00;99.90
2407;DHT22;37709;53.480;9.688;2023-05-10T10:22:05;13.10;99.90
2407;DHT22;37709;53.480;9.688;2023-05-10T10:24:33;13.20;99.90
2407;DHT22;37709;53.480;9.688;2023-05-10T10:27:15;13.50;99.90
2407;DHT22;37709;53.480;9.688;2023-05-10T10:35:10;13.10;99.90
2407;DHT22;37709;53.480;9.688;2023-05-10T10:37:44;12.90;99.90
2407;DHT22;37709;53.480;9.688;2023-05-10T10:40:29;12.80;99.90
2407;DHT22;37709;53.480;9.688;2023-05-10T10:43:23;12.80;99.90
2407;DHT22;37709;53.480;9.688;2023-05-10T10:46:13;12.90;99.90
2407;DHT22;37709;53.480;9.688;2023-05-10T10:48:47;13.00;99.90
2407;DHT22;37709;53.480;9.688;2023-05-10T10:51:15;13.10;99.90
2407;DHT22;37709;53.480;9.688;2023-05-10T10:53:43;13.10;99.90
2407;DHT22;37709;53.480;9.688;2023-05-10T10:56:12;13.30;99.90
2407;DHT22;37709;53.480;9.688;2023-05-10T10:58:49;13.30;99.90
2407;DHT22;37709;53.480;9.688;2023-05-10T11:01:20;13.40;99.90
2407;DHT22;37709;53.480;9.688;2023-05-10T11:06:34;13.80;99.90
2407;DHT22;37709;53.480;9.688;2023-05-10T11:09:11;13.80;99.90
2407;DHT22;37709;53.480;9.688;2023-05-10T11:11:50;13.80;99.90
2407;DHT22;37709;53.480;9.688;2023-05-10T11:14:21;14.10;99.90
2407;DHT22;37709;53.480;9.688;2023-05-10T11:16:51;14.50;99.90
2407;DHT22;37709;53.480;9.688;2023-05-10T11:19:19;15.10;99.90
2407;DHT22;37709;53.480;9.688;2023-05-10T11:21:47;15.30;99.90
2407;DHT22;37709;53.480;9.688;2023-05-10T11:24:20;15.60;99.90
2407;DHT22;37709;53.480;9.688;2023-05-10T11:26:50;15.70;99.90
2407;DHT22;37709;53.480;9.688;2023-05-10T11:29:20;15.80;99.90
2407;DHT22;37709;53.480;9.688;2023-05-10T11:31:48;16.10;99.90
2407;DHT22;37709;53.480;9.688;2023-05-10T11:34:27;16.10;99.90
2407;DHT22;37709;53.480;9.688;2023-05-10T11:36:55;15.90;99.90
2407;DHT22;37709;53.480;9.688;2023-05-10T11:39:28;15.70;99.90
2407;DHT22;37709;53.480;9.688;2023-05-10T11:41:56;15.50;99.90
2407;DHT22;37709;53.480;9.688;2023-05-10T11:44:29;15.50;99.90
2407;DHT22;37709;53.480;9.688;2023-05-10T11:47:00;15.60;99.90
2407;DHT22;37709;53.480;9.688;2023-05-10T11:49:28;15.90;99.90
2407;DHT22;37709;53.480;9.688;2023-05-10T11:52:08;16.40;99.90
2407;DHT22;37709;53.480;9.688;2023-05-10T11:54:36;16.90;99.90
2407;DHT22;37709;53.480;9.688;2023-05-10T11:57:07;17.00;99.90
2407;DHT22;37709;53.480;9.688;2023-05-10T11:59:36;17.20;99.90
2407;DHT22;37709;53.480;9.688;2023-05-10T12:02:03;16.90;99.90
2407;DHT22;37709;53.480;9.688;2023-05-10T12:04:31;16.90;99.90
2407;DHT22;37709;53.480;9.688;2023-05-10T12:06:58;16.80;99.90
2407;DHT22;37709;53.480;9.688;2023-05-10T12:09:26;17.00;99.90
2407;DHT22;37709;53.480;9.688;2023-05-10T12:11:57;17.20;99.90
2407;DHT22;37709;53.480;9.688;2023-05-10T12:14:25;17.30;99.90
2407;DHT22;37709;53.480;9.688;2023-05-10T12:16:52;17.30;99.90
2407;DHT22;37709;53.480;9.688;2023-05-10T12:19:20;17.30;99.90
2407;DHT22;37709;53.480;9.688;2023-05-10T12:21:48;17.10;99.90
2407;DHT22;37709;53.480;9.688;2023-05-10T12:24:15;17.00;99.90
2407;DHT22;37709;53.480;9.688;2023-05-10T12:26:47;17.10;99.90
2407;DHT22;37709;53.480;9.688;2023-05-10T12:29:17;17.50;99.90
2407;DHT22;37709;53.480;9.688;2023-05-10T12:31:56;17.80;99.90
2407;DHT22;37709;53.480;9.688;2023-05-10T12:34:34;18.10;99.90
2407;DHT22;37709;53.480;9.688;2023-05-10T12:37:02;18.50;99.90
2407;DHT22;37709;53.480;9.688;2023-05-10T12:39:44;19.00;99.90
2407;DHT22;37709;53.480;9.688;2023-05-10T12:42:12;19.70;99.90
2407;DHT22;37709;53.480;9.688;2023-05-10T12:44:39;19.80;99.90
2407;DHT22;37709;53.480;9.688;2023-05-10T12:47:07;19.70;99.90
2407;DHT22;37709;53.480;9.688;2023-05-10T12:49:35;19.60;99.90
2407;DHT22;37709;53.480;9.688;2023-05-10T12:52:02;19.30;99.90
2407;DHT22;37709;53.480;9.688;2023-05-10T12:54:29;19.10;99.90
2407;DHT22;37709;53.480;9.688;2023-05-10T12:56:57;19.00;99.90
2407;DHT22;37709;53.480;9.688;2023-05-10T12:59:24;19.50;99.90
2407;DHT22;37709;53.480;9.688;2023-05-10T13:01:52;19.80;99.90
2407;DHT22;37709;53.480;9.688;2023-05-10T13:04:19;20.10;99.90
2407;DHT22;37709;53.480;9.688;2023-05-10T13:06:47;20.30;99.90
2407;DHT22;37709;53.480;9.688;2023-05-10T13:09:14;20.40;99.90
2407;DHT22;37709;53.480;9.688;2023-05-10T13:11:42;20.30;99.90
2407;DHT22;37709;53.480;9.688;2023-05-10T13:14:09;20.00;99.90
2407;DHT22;37709;53.480;9.688;2023-05-10T13:16:37;19.80;99.90
2407;DHT22;37709;53.480;9.688;2023-05-10T13:19:04;19.40;99.90
2407;DHT22;37709;53.480;9.688;2023-05-10T13:21:32;19.20;99.90
2407;DHT22;37709;53.480;9.688;2023-05-10T13:23:59;19.00;99.90
2407;DHT22;37709;53.480;9.688;2023-05-10T13:26:27;18.90;99.90
2407;DHT22;37709;53.480;9.688;2023-05-10T13:28:55;19.10;99.90
2407;DHT22;37709;53.480;9.688;2023-05-10T13:31:23;19.10;99.90
2407;DHT22;37709;53.480;9.688;2023-05-10T13:33:50;19.30;99.90
2407;DHT22;37709;53.480;9.688;2023-05-10T13:36:18;19.50;99.90
2407;DHT22;37709;53.480;9.688;2023-05-10T13:38:45;20.00;99.90
2407;DHT22;37709;53.480;9.688;2023-05-10T13:41:12;20.70;99.90
2407;DHT22;37709;53.480;9.688;2023-05-10T13:43:40;21.10;99.90
2407;DHT22;37709;53.480;9.688;2023-05-10T13:46:08;21.80;99.90
2407;DHT22;37709;53.480;9.688;2023-05-10T13:48:35;22.30;99.90
2407;DHT22;37709;53.480;9.688;2023-05-10T13:51:05;22.70;99.90
2407;DHT22;37709;53.480;9.688;2023-05-10T13:53:32;23.00;99.90
2407;DHT22;37709;53.480;9.688;2023-05-10T13:56:00;23.30;99.90
2407;DHT22;37709;53.480;9.688;2023-05-10T13:58:27;22.70;99.90
2407;DHT22;37709;53.480;9.688;2023-05-10T14:00:55;22.20;99.90
2407;DHT22;37709;53.480;9.688;2023-05-10T14:03:23;22.00;99.90
2407;DHT22;37709;53.480;9.688;2023-05-10T14:05:50;22.30;99.90
2407;DHT22;37709;53.480;9.688;2023-05-10T14:08:17;22.50;99.90
2407;DHT22;37709;53.480;9.688;2023-05-10T14:10:45;22.20;99.90
2407;DHT22;37709;53.480;9.688;2023-05-10T14:13:12;22.50;99.90
2407;DHT22;37709;53.480;9.688;2023-05-10T14:15:39;22.40;99.90
2407;DHT22;37709;53.480;9.688;2023-05-10T14:18:06;22.50;99.90
2407;DHT22;37709;53.480;9.688;2023-05-10T14:20:34;22.30;99.90
2407;DHT22;37709;53.480;9.688;2023-05-10T14:23:01;22.30;99.90
2407;DHT22;37709;53.480;9.688;2023-05-10T14:25:28;22.40;99.90
2407;DHT22;37709;53.480;9.688;2023-05-10T14:27:56;22.10;99.90
2407;DHT22;37709;53.480;9.688;2023-05-10T14:30:23;21.30;99.90
2407;DHT22;37709;53.480;9.688;2023-05-10T14:32:50;20.50;99.90
2407;DHT22;37709;53.480;9.688;2023-05-10T14:35:17;19.90;99.90
2407;DHT22;37709;53.480;9.688;2023-05-10T14:37:46;19.60;99.90
2407;DHT22;37709;53.480;9.688;2023-05-10T14:40:13;19.40;99.90
2407;DHT22;37709;53.480;9.688;2023-05-10T14:42:42;19.10;99.90
2407;DHT22;37709;53.480;9.688;2023-05-10T14:45:10;18.70;99.90
2407;DHT22;37709;53.480;9.688;2023-05-10T14:47:38;18.20;99.90
2407;DHT22;37709;53.480;9.688;2023-05-10T14:50:06;17.70;99.90
2407;DHT22;37709;53.480;9.688;2023-05-10T14:52:34;17.30;99.90
2407;DHT22;37709;53.480;9.688;2023-05-10T14:55:02;16.90;99.90
2407;DHT22;37709;53.480;9.688;2023-05-10T14:57:29;16.60;99.90
2407;DHT22;37709;53.480;9.688;2023-05-10T14:59:57;16.30;99.90
2407;DHT22;37709;53.480;9.688;2023-05-10T15:02:25;16.00;99.90
2407;DHT22;37709;53.480;9.688;2023-05-10T15:04:53;15.90;99.90
2407;DHT22;37709;53.480;9.688;2023-05-10T15:07:21;15.60;99.90
2407;DHT22;37709;53.480;9.688;2023-05-10T15:09:49;15.60;99.90
2407;DHT22;37709;53.480;9.688;2023-05-10T15:12:18;15.70;99.90
2407;DHT22;37709;53.480;9.688;2023-05-10T15:14:45;15.90;99.90
2407;DHT22;37709;53.480;9.688;2023-05-10T15:17:12;16.20;99.90
2407;DHT22;37709;53.480;9.688;2023-05-10T15:19:40;16.50;99.90
2407;DHT22;37709;53.480;9.688;2023-05-10T15:22:07;16.60;99.90
2407;DHT22;37709;53.480;9.688;2023-05-10T15:24:35;16.90;99.90
2407;DHT22;37709;53.480;9.688;2023-05-10T15:27:03;17.20;99.90
2407;DHT22;37709;53.480;9.688;2023-05-10T15:29:30;17.50;99.90
2407;DHT22;37709;53.480;9.688;2023-05-10T15:31:59;17.70;99.90
2407;DHT22;37709;53.480;9.688;2023-05-10T15:34:28;17.80;99.90
2407;DHT22;37709;53.480;9.688;2023-05-10T15:36:55;17.70;99.90
2407;DHT22;37709;53.480;9.688;2023-05-10T15:39:23;17.60;99.90
2407;DHT22;37709;53.480;9.688;2023-05-10T15:41:51;17.60;99.90
2407;DHT22;37709;53.480;9.688;2023-05-10T15:44:18;17.50;99.90
2407;DHT22;37709;53.480;9.688;2023-05-10T15:46:46;17.30;99.90
2407;DHT22;37709;53.480;9.688;2023-05-10T15:49:15;17.20;99.90
2407;DHT22;37709;53.480;9.688;2023-05-10T15:51:42;17.20;99.90
2407;DHT22;37709;53.480;9.688;2023-05-10T15:54:09;17.30;99.90
2407;DHT22;37709;53.480;9.688;2023-05-10T15:56:37;17.40;99.90
2407;DHT22;37709;53.480;9.688;2023-05-10T15:59:05;17.80;99.90
2407;DHT22;37709;53.480;9.688;2023-05-10T16:01:34;18.30;99.90
2407;DHT22;37709;53.480;9.688;2023-05-10T16:04:02;18.90;99.90
2407;DHT22;37709;53.480;9.688;2023-05-10T16:06:30;19.10;99.90
2407;DHT22;37709;53.480;9.688;2023-05-10T16:08:58;18.80;99.90
2407;DHT22;37709;53.480;9.688;2023-05-10T16:11:25;18.60;99.90
2407;DHT22;37709;53.480;9.688;2023-05-10T16:13:53;18.40;99.90
2407;DHT22;37709;53.480;9.688;2023-05-10T16:16:21;18.10;99.90